sensor_id;sensor_type;location;lat;lon;timestamp;pressure;altitude;pressure_sealevel;temperature;humidity
23016;BME280;11674;52.428;13.584;2022-08-01T00:01:55;100889.03;;;24.91;43.29
23016;BME280;11674;52.428;13.584;2022-08-01T00:04:27;100886.50;;;24.86;43.60
23016;BME280;11674;52.428;13.584;2022-08-01T00:06:59;100882.38;;;24.80;43.92
23016;BME280;11674;52.428;13.584;2022-08-01T00:09:31;100874.13;;;24.72;44.01
23016;BME280;11674;52.428;13.584;2022-08-01T00:12:03;100885.78;;;24.63;44.39
23016;BME280;11674;52.428;13.584;2022-08-01T00:14:35;100880.84;;;24.60;44.27
23016;BME280;11674;52.428;13.584;2022-08-01T00:17:07;100880.41;;;24.58;44.31
23016;BME280;11674;52.428;13.584;2022-08-01T00:19:39;100867.78;;;24.56;44.67
23016;BME280;11674;52.428;13.584;2022-08-01T00:22:11;100885.56;;;24.53;44.94
23016;BME280;11674;52.428;13.584;2022-08-01T00:24:43;100886.28;;;24.46;45.09
23016;BME280;11674;52.428;13.584;2022-08-01T00:27:15;100886.59;;;24.41;45.11
23016;BME280;11674;52.428;13.584;2022-08-01T00:29:47;100895.06;;;24.38;45.59
23016;BME280;11674;52.428;13.584;2022-08-01T00:32:22;100887.72;;;24.37;45.42
23016;BME280;11674;52.428;13.584;2022-08-01T00:34:55;100891.38;;;24.37;45.51
23016;BME280;11674;52.428;13.584;2022-08-01T00:37:20;100888.13;;;24.35;45.99
23016;BME280;11674;52.428;13.584;2022-08-01T00:39:51;100892.84;;;24.28;46.12
23016;BME280;11674;52.428;13.584;2022-08-01T00:42:23;100883.47;;;24.24;46.25
23016;BME280;11674;52.428;13.584;2022-08-01T00:44:49;100879.00;;;24.23;45.95
23016;BME280;11674;52.428;13.584;2022-08-01T00:47:20;100883.78;;;24.19;45.99
23016;BME280;11674;52.428;13.584;2022-08-01T00:49:52;100889.88;;;24.21;46.53
23016;BME280;11674;52.428;13.584;2022-08-01T00:52:18;100899.16;;;24.18;46.69
23016;BME280;11674;52.428;13.584;2022-08-01T00:54:50;100895.91;;;24.16;46.78
23016;BME280;11674;52.428;13.584;2022-08-01T00:57:15;100888.13;;;24.13;46.82
23016;BME280;11674;52.428;13.584;2022-08-01T00:59:47;100889.34;;;24.12;47.24
23016;BME280;11674;52.428;13.584;2022-08-01T01:02:13;100888.06;;;24.09;47.35
23016;BME280;11674;52.428;13.584;2022-08-01T01:04:44;100889.28;;;24.08;47.56
23016;BME280;11674;52.428;13.584;2022-08-01T01:07:21;100888.03;;;24.06;47.75
23016;BME280;11674;52.428;13.584;2022-08-01T01:10:30;100889.28;;;24.08;47.80
23016;BME280;11674;52.428;13.584;2022-08-01T01:13:25;100879.94;;;24.08;48.04
23016;BME280;11674;52.428;13.584;2022-08-01T01:16:05;100881.94;;;24.07;47.96
23016;BME280;11674;52.428;13.584;2022-08-01T01:18:41;100881.50;;;24.05;48.03
23016;BME280;11674;52.428;13.584;2022-08-01T01:24:15;100876.22;;;24.04;48.66
23016;BME280;11674;52.428;13.584;2022-08-01T01:27:02;100874.59;;;24.03;48.47
23016;BME280;11674;52.428;13.584;2022-08-01T01:29:48;100883.09;;;24.03;48.46
23016;BME280;11674;52.428;13.584;2022-08-01T01:32:35;100876.59;;;24.02;48.54
23016;BME280;11674;52.428;13.584;2022-08-01T01:35:13;100880.56;;;23.98;48.87
23016;BME280;11674;52.428;13.584;2022-08-01T01:37:47;100871.16;;;23.94;49.03
23016;BME280;11674;52.428;13.584;2022-08-01T01:40:22;100870.31;;;23.90;49.17
23016;BME280;11674;52.428;13.584;2022-08-01T01:42:56;100868.28;;;23.90;49.42
23016;BME280;11674;52.428;13.584;2022-08-01T01:45:29;100876.78;;;23.90;49.09
23016;BME280;11674;52.428;13.584;2022-08-01T01:48:03;100862.19;;;23.88;49.35
23016;BME280;11674;52.428;13.584;2022-08-01T01:50:36;100863.34;;;23.87;49.88
23016;BME280;11674;52.428;13.584;2022-08-01T01:53:09;100862.09;;;23.85;49.90
23016;BME280;11674;52.428;13.584;2022-08-01T01:55:45;100863.66;;;23.82;50.25
23016;BME280;11674;52.428;13.584;2022-08-01T01:58:19;100865.22;;;23.80;50.10
23016;BME280;11674;52.428;13.584;2022-08-01T02:00:52;100869.25;;;23.79;50.33
23016;BME280;11674;52.428;13.584;2022-08-01T02:03:28;100871.22;;;23.75;50.29
23016;BME280;11674;52.428;13.584;2022-08-01T02:06:00;100871.50;;;23.70;50.88
23016;BME280;11674;52.428;13.584;2022-08-01T02:08:33;100869.72;;;23.62;51.16
23016;BME280;11674;52.428;13.584;2022-08-01T02:11:07;100880.25;;;23.61;51.10
23016;BME280;11674;52.428;13.584;2022-08-01T02:13:40;100882.25;;;23.61;51.41
23016;BME280;11674;52.428;13.584;2022-08-01T02:16:13;100882.94;;;23.54;51.49
23016;BME280;11674;52.428;13.584;2022-08-01T02:18:46;100882.06;;;23.50;51.56
23016;BME280;11674;52.428;13.584;2022-08-01T02:21:25;100878.75;;;23.48;52.00
23016;BME280;11674;52.428;13.584;2022-08-01T02:24:11;100876.63;;;23.42;51.82
23016;BME280;11674;52.428;13.584;2022-08-01T02:26:47;100884.97;;;23.35;52.34
23016;BME280;11674;52.428;13.584;2022-08-01T02:29:25;100879.59;;;23.30;52.47
23016;BME280;11674;52.428;13.584;2022-08-01T02:32:00;100879.88;;;23.25;52.84
23016;BME280;11674;52.428;13.584;2022-08-01T02:34:34;100888.56;;;23.16;53.64
23016;BME280;11674;52.428;13.584;2022-08-01T02:37:07;100881.13;;;23.08;53.81
23016;BME280;11674;52.428;13.584;2022-08-01T02:39:41;100881.34;;;23.00;53.81
23016;BME280;11674;52.428;13.584;2022-08-01T02:42:16;100884.00;;;22.93;54.18
23016;BME280;11674;52.428;13.584;2022-08-01T02:44:49;100881.94;;;22.90;54.35
23016;BME280;11674;52.428;13.584;2022-08-01T02:47:25;100885.50;;;22.87;54.15
23016;BME280;11674;52.428;13.584;2022-08-01T02:49:59;100884.63;;;22.83;54.26
23016;BME280;11674;52.428;13.584;2022-08-01T02:52:32;100881.16;;;22.74;54.35
23016;BME280;11674;52.428;13.584;2022-08-01T02:55:05;100881.00;;;22.67;54.81
23016;BME280;11674;52.428;13.584;2022-08-01T02:57:38;100884.19;;;22.65;54.68
23016;BME280;11674;52.428;13.584;2022-08-01T03:00:10;100888.09;;;22.61;55.20
23016;BME280;11674;52.428;13.584;2022-08-01T03:02:44;100881.56;;;22.57;55.38
23016;BME280;11674;52.428;13.584;2022-08-01T03:05:17;100883.19;;;22.58;55.39
23016;BME280;11674;52.428;13.584;2022-08-01T03:07:49;100876.72;;;22.57;55.13
23016;BME280;11674;52.428;13.584;2022-08-01T03:10:22;100873.44;;;22.55;55.49
23016;BME280;11674;52.428;13.584;2022-08-01T03:12:57;100882.28;;;22.54;55.89
23016;BME280;11674;52.428;13.584;2022-08-01T03:15:33;100890.78;;;22.54;55.86
23016;BME280;11674;52.428;13.584;2022-08-01T03:18:09;100895.16;;;22.51;55.89
23016;BME280;11674;52.428;13.584;2022-08-01T03:20:43;100894.16;;;22.44;56.32
23016;BME280;11674;52.428;13.584;2022-08-01T03:23:16;100894.88;;;22.41;56.14
23016;BME280;11674;52.428;13.584;2022-08-01T03:25:49;100890.31;;;22.36;56.22
23016;BME280;11674;52.428;13.584;2022-08-01T03:28:24;100900.72;;;22.32;56.35
23016;BME280;11674;52.428;13.584;2022-08-01T03:30:58;100892.88;;;22.26;56.76
23016;BME280;11674;52.428;13.584;2022-08-01T03:33:31;100892.44;;;22.24;57.05
23016;BME280;11674;52.428;13.584;2022-08-01T03:36:04;100899.16;;;22.19;56.88
23016;BME280;11674;52.428;13.584;2022-08-01T03:38:37;100899.09;;;22.16;57.18
23016;BME280;11674;52.428;13.584;2022-08-01T03:41:17;100894.25;;;22.16;57.10
23016;BME280;11674;52.428;13.584;2022-08-01T03:44:07;100903.81;;;22.12;57.28
23016;BME280;11674;52.428;13.584;2022-08-01T03:46:46;100908.66;;;22.11;57.00
23016;BME280;11674;52.428;13.584;2022-08-01T03:49:25;100902.94;;;22.08;57.23
23016;BME280;11674;52.428;13.584;2022-08-01T03:52:02;100905.28;;;22.06;57.51
23016;BME280;11674;52.428;13.584;2022-08-01T03:54:37;100902.81;;;22.04;57.66
23016;BME280;11674;52.428;13.584;2022-08-01T03:57:10;100906.47;;;22.05;57.93
23016;BME280;11674;52.428;13.584;2022-08-01T03:59:42;100905.63;;;22.04;58.00
23016;BME280;11674;52.428;13.584;2022-08-01T04:02:15;100907.66;;;22.04;58.27
23016;BME280;11674;52.428;13.584;2022-08-01T04:04:46;100917.31;;;22.03;58.57
23016;BME280;11674;52.428;13.584;2022-08-01T04:07:24;100912.13;;;22.05;58.60
23016;BME280;11674;52.428;13.584;2022-08-01T04:09:57;100918.22;;;22.07;58.52
23016;BME280;11674;52.428;13.584;2022-08-01T04:12:28;100923.88;;;22.07;58.72
23016;BME280;11674;52.428;13.584;2022-08-01T04:15:00;100916.59;;;22.06;59.07
23016;BME280;11674;52.428;13.584;2022-08-01T04:17:32;100916.59;;;22.06;59.18
23016;BME280;11674;52.428;13.584;2022-08-01T04:20:05;100910.56;;;22.07;59.07
23016;BME280;11674;52.428;13.584;2022-08-01T04:22:43;100916.31;;;22.11;59.24
23016;BME280;11674;52.428;13.584;2022-08-01T04:25:21;100918.97;;;22.19;58.89
23016;BME280;11674;52.428;13.584;2022-08-01T04:27:57;100916.69;;;22.25;59.25
23016;BME280;11674;52.428;13.584;2022-08-01T04:30:31;100920.41;;;22.29;59.10
23016;BME280;11674;52.428;13.584;2022-08-01T04:33:06;100915.94;;;22.28;59.44
23016;BME280;11674;52.428;13.584;2022-08-01T04:35:41;100922.53;;;22.32;59.26
23016;BME280;11674;52.428;13.584;2022-08-01T04:38:17;100910.50;;;22.35;59.08
23016;BME280;11674;52.428;13.584;2022-08-01T04:40:51;100915.03;;;22.39;59.16
23016;BME280;11674;52.428;13.584;2022-08-01T04:43:23;100932.94;;;22.43;59.17
23016;BME280;11674;52.428;13.584;2022-08-01T04:45:57;100925.75;;;22.46;59.15
23016;BME280;11674;52.428;13.584;2022-08-01T04:48:31;100923.81;;;22.50;59.19
23016;BME280;11674;52.428;13.584;2022-08-01T04:51:04;100929.94;;;22.52;59.57
23016;BME280;11674;52.428;13.584;2022-08-01T04:53:35;100921.81;;;22.50;59.72
23016;BME280;11674;52.428;13.584;2022-08-01T04:56:07;100926.63;;;22.50;59.65
23016;BME280;11674;52.428;13.584;2022-08-01T04:58:43;100926.63;;;22.50;59.72
23016;BME280;11674;52.428;13.584;2022-08-01T05:01:14;100939.34;;;22.56;59.94
23016;BME280;11674;52.428;13.584;2022-08-01T05:03:46;100924.00;;;22.57;59.88
23016;BME280;11674;52.428;13.584;2022-08-01T05:06:18;100930.00;;;22.55;60.02
23016;BME280;11674;52.428;13.584;2022-08-01T05:08:50;100931.28;;;22.58;59.86
23016;BME280;11674;52.428;13.584;2022-08-01T05:11:22;100935.47;;;22.64;60.02
23016;BME280;11674;52.428;13.584;2022-08-01T05:13:54;100937.59;;;22.67;60.21
23016;BME280;11674;52.428;13.584;2022-08-01T05:16:26;100929.47;;;22.65;60.58
23016;BME280;11674;52.428;13.584;2022-08-01T05:18:58;100937.13;;;22.65;60.32
23016;BME280;11674;52.428;13.584;2022-08-01T05:21:30;100945.59;;;22.65;60.55
23016;BME280;11674;52.428;13.584;2022-08-01T05:24:04;100944.69;;;22.61;60.88
23016;BME280;11674;52.428;13.584;2022-08-01T05:26:36;100945.88;;;22.60;60.85
23016;BME280;11674;52.428;13.584;2022-08-01T05:29:07;100946.25;;;22.58;60.92
23016;BME280;11674;52.428;13.584;2022-08-01T05:31:39;100944.16;;;22.55;61.00
23016;BME280;11674;52.428;13.584;2022-08-01T05:34:11;100939.97;;;22.49;61.49
23016;BME280;11674;52.428;13.584;2022-08-01T05:36:37;100937.94;;;22.50;61.52
23016;BME280;11674;52.428;13.584;2022-08-01T05:39:09;100942.72;;;22.46;61.58
23016;BME280;11674;52.428;13.584;2022-08-01T05:41:41;100942.72;;;22.46;61.95
23016;BME280;11674;52.428;13.584;2022-08-01T05:44:07;100941.41;;;22.43;62.13
23016;BME280;11674;52.428;13.584;2022-08-01T05:46:39;100946.16;;;22.39;62.33
23016;BME280;11674;52.428;13.584;2022-08-01T05:49:10;100950.97;;;22.39;62.55
23016;BME280;11674;52.428;13.584;2022-08-01T05:51:42;100947.44;;;22.42;62.61
23016;BME280;11674;52.428;13.584;2022-08-01T05:54:14;100945.53;;;22.46;62.24
23016;BME280;11674;52.428;13.584;2022-08-01T05:56:46;100953.38;;;22.52;62.58
23016;BME280;11674;52.428;13.584;2022-08-01T05:59:19;100953.56;;;22.59;62.61
23016;BME280;11674;52.428;13.584;2022-08-01T06:01:51;100948.91;;;22.67;62.46
23016;BME280;11674;52.428;13.584;2022-08-01T06:04:23;100961.19;;;22.74;62.26
23016;BME280;11674;52.428;13.584;2022-08-01T06:06:55;100960.38;;;22.74;62.29
23016;BME280;11674;52.428;13.584;2022-08-01T06:09:27;100960.38;;;22.74;62.51
23016;BME280;11674;52.428;13.584;2022-08-01T06:11:59;100964.22;;;22.81;62.19
23016;BME280;11674;52.428;13.584;2022-08-01T06:14:31;100961.97;;;22.90;62.29
23016;BME280;11674;52.428;13.584;2022-08-01T06:17:04;100973.94;;;22.99;62.21
23016;BME280;11674;52.428;13.584;2022-08-01T06:19:35;100965.16;;;23.04;62.17
23016;BME280;11674;52.428;13.584;2022-08-01T06:22:07;100974.28;;;23.13;61.83
23016;BME280;11674;52.428;13.584;2022-08-01T06:24:39;100969.41;;;23.14;62.00
23016;BME280;11674;52.428;13.584;2022-08-01T06:27:12;100969.06;;;23.15;62.16
23016;BME280;11674;52.428;13.584;2022-08-01T06:29:43;100970.09;;;23.07;61.95
23016;BME280;11674;52.428;13.584;2022-08-01T06:32:15;100970.47;;;23.06;62.24
23016;BME280;11674;52.428;13.584;2022-08-01T06:34:48;100974.03;;;23.18;62.31
23016;BME280;11674;52.428;13.584;2022-08-01T06:37:19;100969.50;;;23.33;61.97
23016;BME280;11674;52.428;13.584;2022-08-01T06:39:51;100975.78;;;23.42;62.10
23016;BME280;11674;52.428;13.584;2022-08-01T06:42:23;100967.72;;;23.44;61.49
23016;BME280;11674;52.428;13.584;2022-08-01T06:44:55;100977.63;;;23.53;61.52
23016;BME280;11674;52.428;13.584;2022-08-01T06:47:28;100976.59;;;23.61;61.38
23016;BME280;11674;52.428;13.584;2022-08-01T06:49:59;100982.09;;;23.54;60.99
23016;BME280;11674;52.428;13.584;2022-08-01T06:52:32;100978.59;;;23.42;61.32
23016;BME280;11674;52.428;13.584;2022-08-01T06:54:57;100974.44;;;23.36;61.41
23016;BME280;11674;52.428;13.584;2022-08-01T06:57:29;100975.53;;;23.31;61.57
23016;BME280;11674;52.428;13.584;2022-08-01T07:00:06;100979.00;;;23.25;61.45
23016;BME280;11674;52.428;13.584;2022-08-01T07:02:39;100975.22;;;23.17;61.73
23016;BME280;11674;52.428;13.584;2022-08-01T07:05:10;100979.31;;;23.20;61.92
23016;BME280;11674;52.428;13.584;2022-08-01T07:07:37;100978.34;;;23.31;61.93
23016;BME280;11674;52.428;13.584;2022-08-01T07:10:10;100989.84;;;23.38;61.65
23016;BME280;11674;52.428;13.584;2022-08-01T07:12:42;100987.22;;;23.30;61.83
23016;BME280;11674;52.428;13.584;2022-08-01T07:15:13;100993.63;;;23.27;61.94
23016;BME280;11674;52.428;13.584;2022-08-01T07:17:45;100988.78;;;23.27;62.14
23016;BME280;11674;52.428;13.584;2022-08-01T07:20:19;100986.47;;;23.33;62.40
23016;BME280;11674;52.428;13.584;2022-08-01T07:22:44;100980.59;;;23.41;62.17
23016;BME280;11674;52.428;13.584;2022-08-01T07:25:16;100983.69;;;23.52;62.03
23016;BME280;11674;52.428;13.584;2022-08-01T07:27:47;100977.50;;;23.65;62.20
23016;BME280;11674;52.428;13.584;2022-08-01T07:30:19;100982.25;;;23.80;62.08
23016;BME280;11674;52.428;13.584;2022-08-01T07:32:51;100986.97;;;23.92;61.29
23016;BME280;11674;52.428;13.584;2022-08-01T07:35:24;100987.94;;;23.99;61.42
23016;BME280;11674;52.428;13.584;2022-08-01T07:37:55;100988.13;;;24.10;60.92
23016;BME280;11674;52.428;13.584;2022-08-01T07:40:28;100994.25;;;24.12;60.71
23016;BME280;11674;52.428;13.584;2022-08-01T07:42:59;100993.31;;;24.04;60.66
23016;BME280;11674;52.428;13.584;2022-08-01T07:45:32;100994.09;;;24.05;60.94
23016;BME280;11674;52.428;13.584;2022-08-01T07:48:04;100991.59;;;24.00;60.54
23016;BME280;11674;52.428;13.584;2022-08-01T07:50:37;100992.47;;;24.04;60.48
23016;BME280;11674;52.428;13.584;2022-08-01T07:53:09;100984.34;;;24.02;60.31
23016;BME280;11674;52.428;13.584;2022-08-01T07:55:40;100994.03;;;24.01;60.36
23016;BME280;11674;52.428;13.584;2022-08-01T07:58:13;100996.44;;;23.99;60.18
23016;BME280;11674;52.428;13.584;2022-08-01T08:00:45;101002.72;;;23.89;60.09
23016;BME280;11674;52.428;13.584;2022-08-01T08:03:17;100992.91;;;23.87;60.23
23016;BME280;11674;52.428;13.584;2022-08-01T08:05:49;101004.19;;;23.83;59.94
23016;BME280;11674;52.428;13.584;2022-08-01T08:08:21;101004.47;;;23.78;60.16
23016;BME280;11674;52.428;13.584;2022-08-01T08:10:53;101008.81;;;23.72;60.04
23016;BME280;11674;52.428;13.584;2022-08-01T08:13:25;101009.09;;;23.67;60.30
23016;BME280;11674;52.428;13.584;2022-08-01T08:15:57;101013.06;;;23.63;60.46
23016;BME280;11674;52.428;13.584;2022-08-01T08:18:29;101012.22;;;23.62;60.45
23016;BME280;11674;52.428;13.584;2022-08-01T08:21:00;101018.25;;;23.61;60.35
23016;BME280;11674;52.428;13.584;2022-08-01T08:23:32;101013.06;;;23.63;60.36
23016;BME280;11674;52.428;13.584;2022-08-01T08:26:05;101014.84;;;23.71;60.51
23016;BME280;11674;52.428;13.584;2022-08-01T08:28:37;101011.84;;;23.83;60.33
23016;BME280;11674;52.428;13.584;2022-08-01T08:31:09;101007.78;;;23.99;60.43
23016;BME280;11674;52.428;13.584;2022-08-01T08:33:40;101007.69;;;24.15;59.80
23016;BME280;11674;52.428;13.584;2022-08-01T08:36:13;101011.41;;;24.19;59.64
23016;BME280;11674;52.428;13.584;2022-08-01T08:38:46;101019.91;;;24.19;58.92
23016;BME280;11674;52.428;13.584;2022-08-01T08:41:18;101024.25;;;24.13;59.04
23016;BME280;11674;52.428;13.584;2022-08-01T08:43:50;101021.06;;;24.14;58.96
23016;BME280;11674;52.428;13.584;2022-08-01T08:46:23;101022.69;;;24.15;58.59
23016;BME280;11674;52.428;13.584;2022-08-01T08:48:56;101034.72;;;24.09;58.65
23016;BME280;11674;52.428;13.584;2022-08-01T08:51:30;101033.66;;;23.98;58.60
23016;BME280;11674;52.428;13.584;2022-08-01T08:54:05;101045.13;;;23.86;58.58
23016;BME280;11674;52.428;13.584;2022-08-01T08:56:37;101053.78;;;23.74;58.62
23016;BME280;11674;52.428;13.584;2022-08-01T08:59:11;101047.88;;;23.63;58.89
23016;BME280;11674;52.428;13.584;2022-08-01T09:01:43;101046.25;;;23.62;58.94
23016;BME280;11674;52.428;13.584;2022-08-01T09:04:15;101050.78;;;23.67;58.65
23016;BME280;11674;52.428;13.584;2022-08-01T09:06:47;101048.84;;;23.71;58.80
23016;BME280;11674;52.428;13.584;2022-08-01T09:09:19;101047.59;;;23.87;58.89
23016;BME280;11674;52.428;13.584;2022-08-01T09:11:51;101045.31;;;24.12;58.34
23016;BME280;11674;52.428;13.584;2022-08-01T09:14:26;101048.69;;;24.40;57.92
23016;BME280;11674;52.428;13.584;2022-08-01T09:17:04;101048.28;;;24.60;57.52
23016;BME280;11674;52.428;13.584;2022-08-01T09:19:46;101039.22;;;24.74;57.05
23016;BME280;11674;52.428;13.584;2022-08-01T09:22:21;101046.66;;;24.82;56.92
23016;BME280;11674;52.428;13.584;2022-08-01T09:25:00;101052.03;;;24.87;56.81
23016;BME280;11674;52.428;13.584;2022-08-01T09:27:33;101052.50;;;24.92;56.30
23016;BME280;11674;52.428;13.584;2022-08-01T09:30:14;101066.59;;;24.85;56.01
23016;BME280;11674;52.428;13.584;2022-08-01T09:32:57;101063.59;;;24.75;55.80
23016;BME280;11674;52.428;13.584;2022-08-01T09:35:34;101063.31;;;24.61;55.78
23016;BME280;11674;52.428;13.584;2022-08-01T09:38:15;101070.56;;;24.58;55.62
23016;BME280;11674;52.428;13.584;2022-08-01T09:40:56;101073.41;;;24.58;55.73
23016;BME280;11674;52.428;13.584;2022-08-01T09:43:30;101069.44;;;24.63;55.71
23016;BME280;11674;52.428;13.584;2022-08-01T09:45:56;101075.16;;;24.66;55.23
23016;BME280;11674;52.428;13.584;2022-08-01T09:48:29;101072.25;;;24.63;55.34
23016;BME280;11674;52.428;13.584;2022-08-01T09:51:01;101079.97;;;24.62;54.73
23016;BME280;11674;52.428;13.584;2022-08-01T09:54:03;101078.63;;;24.56;54.95
23016;BME280;11674;52.428;13.584;2022-08-01T09:56:40;101081.38;;;24.53;54.83
23016;BME280;11674;52.428;13.584;2022-08-01T09:59:12;101080.94;;;24.51;54.87
23016;BME280;11674;52.428;13.584;2022-08-01T10:01:46;101076.47;;;24.50;54.80
23016;BME280;11674;52.428;13.584;2022-08-01T10:04:20;101082.50;;;24.48;54.63
23016;BME280;11674;52.428;13.584;2022-08-01T10:07:04;101085.78;;;24.50;54.44
23016;BME280;11674;52.428;13.584;2022-08-01T10:09:36;101080.03;;;24.66;54.63
23016;BME280;11674;52.428;13.584;2022-08-01T10:12:03;101085.22;;;24.83;54.08
23016;BME280;11674;52.428;13.584;2022-08-01T10:14:36;101091.16;;;24.97;54.02
23016;BME280;11674;52.428;13.584;2022-08-01T10:17:01;101086.69;;;24.96;53.59
23016;BME280;11674;52.428;13.584;2022-08-01T10:19:34;101093.94;;;24.93;53.60
23016;BME280;11674;52.428;13.584;2022-08-01T10:22:08;101093.03;;;24.89;53.50
23016;BME280;11674;52.428;13.584;2022-08-01T10:24:43;101092.84;;;24.79;53.64
23016;BME280;11674;52.428;13.584;2022-08-01T10:27:10;101091.97;;;24.75;53.88
23016;BME280;11674;52.428;13.584;2022-08-01T10:29:57;101101.16;;;24.68;53.58
23016;BME280;11674;52.428;13.584;2022-08-01T10:32:30;101097.75;;;24.59;53.74
23016;BME280;11674;52.428;13.584;2022-08-01T10:34:56;101092.28;;;24.51;54.13
23016;BME280;11674;52.428;13.584;2022-08-01T10:37:28;101100.44;;;24.52;53.90
23016;BME280;11674;52.428;13.584;2022-08-01T10:39:54;101096.03;;;24.55;53.99
23016;BME280;11674;52.428;13.584;2022-08-01T10:42:26;101096.44;;;24.57;53.94
23016;BME280;11674;52.428;13.584;2022-08-01T10:44:51;101099.47;;;24.64;53.85
23016;BME280;11674;52.428;13.584;2022-08-01T10:47:27;101104.06;;;24.72;53.64
23016;BME280;11674;52.428;13.584;2022-08-01T10:53:15;101100.78;;;24.92;53.71
23016;BME280;11674;52.428;13.584;2022-08-01T10:58:32;101107.94;;;24.83;52.99
23016;BME280;11674;52.428;13.584;2022-08-01T11:09:11;101108.50;;;24.92;53.09
23016;BME280;11674;52.428;13.584;2022-08-01T11:12:08;101112.25;;;24.96;52.98
23016;BME280;11674;52.428;13.584;2022-08-01T11:17:33;101118.03;;;25.03;52.88
23016;BME280;11674;52.428;13.584;2022-08-01T11:20:15;101121.63;;;25.00;52.96
23016;BME280;11674;52.428;13.584;2022-08-01T11:30:42;101129.28;;;24.96;53.10
23016;BME280;11674;52.428;13.584;2022-08-01T11:33:17;101131.34;;;24.99;53.03
23016;BME280;11674;52.428;13.584;2022-08-01T11:38:49;101134.31;;;25.28;52.55
23016;BME280;11674;52.428;13.584;2022-08-01T11:41:26;101127.16;;;25.38;52.19
23016;BME280;11674;52.428;13.584;2022-08-01T11:43:59;101134.63;;;25.46;52.28
23016;BME280;11674;52.428;13.584;2022-08-01T11:47:02;101124.50;;;25.48;52.15
23016;BME280;11674;52.428;13.584;2022-08-01T11:52:06;101137.78;;;25.41;51.77
23016;BME280;11674;52.428;13.584;2022-08-01T11:57:08;101138.41;;;25.08;51.85
23016;BME280;11674;52.428;13.584;2022-08-01T11:59:48;101151.06;;;24.69;52.25
23016;BME280;11674;52.428;13.584;2022-08-01T12:02:22;101150.63;;;24.29;53.45
23016;BME280;11674;52.428;13.584;2022-08-01T12:04:52;101151.81;;;24.09;53.45
23016;BME280;11674;52.428;13.584;2022-08-01T12:07:26;101157.16;;;23.95;54.27
23016;BME280;11674;52.428;13.584;2022-08-01T12:10:29;101144.63;;;23.81;54.68
23016;BME280;11674;52.428;13.584;2022-08-01T12:13:03;101167.97;;;23.74;55.02
23016;BME280;11674;52.428;13.584;2022-08-01T12:15:31;101166.63;;;23.68;55.49
23016;BME280;11674;52.428;13.584;2022-08-01T12:18:05;101166.25;;;23.70;55.60
23016;BME280;11674;52.428;13.584;2022-08-01T12:20:41;101169.81;;;23.67;56.41
23016;BME280;11674;52.428;13.584;2022-08-01T12:23:15;101166.53;;;23.65;56.64
23016;BME280;11674;52.428;13.584;2022-08-01T12:25:51;101169.53;;;23.72;56.70
23016;BME280;11674;52.428;13.584;2022-08-01T12:28:17;101168.59;;;23.83;56.89
23016;BME280;11674;52.428;13.584;2022-08-01T12:30:49;101167.00;;;24.01;56.74
23016;BME280;11674;52.428;13.584;2022-08-01T12:33:21;101167.47;;;24.22;56.68
23016;BME280;11674;52.428;13.584;2022-08-01T12:35:53;101168.16;;;24.54;56.15
23016;BME280;11674;52.428;13.584;2022-08-01T12:38:25;101161.63;;;24.91;55.74
23016;BME280;11674;52.428;13.584;2022-08-01T12:40:57;101158.19;;;25.24;55.30
23016;BME280;11674;52.428;13.584;2022-08-01T12:43:31;101161.78;;;25.43;54.30
23016;BME280;11674;52.428;13.584;2022-08-01T12:46:03;101157.41;;;25.49;54.16
23016;BME280;11674;52.428;13.584;2022-08-01T12:48:35;101163.06;;;25.72;53.90
23016;BME280;11674;52.428;13.584;2022-08-01T12:51:02;101155.19;;;26.14;53.35
23016;BME280;11674;52.428;13.584;2022-08-01T12:53:34;101147.03;;;26.45;52.41
23016;BME280;11674;52.428;13.584;2022-08-01T12:56:07;101152.91;;;26.56;51.92
23016;BME280;11674;52.428;13.584;2022-08-01T12:58:40;101159.84;;;26.58;51.31
23016;BME280;11674;52.428;13.584;2022-08-01T13:01:10;101143.84;;;26.50;51.43
23016;BME280;11674;52.428;13.584;2022-08-01T13:03:57;101150.97;;;26.34;50.95
23016;BME280;11674;52.428;13.584;2022-08-01T13:06:29;101164.16;;;26.16;51.24
23016;BME280;11674;52.428;13.584;2022-08-01T13:08:55;101156.22;;;26.02;51.64
23016;BME280;11674;52.428;13.584;2022-08-01T13:11:27;101157.53;;;25.82;51.57
23016;BME280;11674;52.428;13.584;2022-08-01T13:13:59;101160.31;;;25.79;51.89
23016;BME280;11674;52.428;13.584;2022-08-01T13:16:31;101153.56;;;25.87;52.10
23016;BME280;11674;52.428;13.584;2022-08-01T13:19:03;101158.50;;;26.19;52.02
23016;BME280;11674;52.428;13.584;2022-08-01T13:21:35;101156.34;;;26.42;51.58
23016;BME280;11674;52.428;13.584;2022-08-01T13:24:04;101150.50;;;26.58;51.10
23016;BME280;11674;52.428;13.584;2022-08-01T13:26:56;101148.16;;;26.67;50.98
23016;BME280;11674;52.428;13.584;2022-08-01T13:29:37;101143.88;;;26.87;51.05
23016;BME280;11674;52.428;13.584;2022-08-01T13:32:16;101145.78;;;27.12;50.20
23016;BME280;11674;52.428;13.584;2022-08-01T13:34:48;101155.47;;;27.04;49.96
23016;BME280;11674;52.428;13.584;2022-08-01T13:37:13;101150.06;;;26.92;50.12
23016;BME280;11674;52.428;13.584;2022-08-01T13:39:45;101150.38;;;26.84;50.08
23016;BME280;11674;52.428;13.584;2022-08-01T13:42:17;101159.16;;;26.68;50.00
23016;BME280;11674;52.428;13.584;2022-08-01T13:44:49;101147.47;;;26.47;50.39
23016;BME280;11674;52.428;13.584;2022-08-01T13:47:21;101154.59;;;26.31;50.58
23016;BME280;11674;52.428;13.584;2022-08-01T13:49:53;101155.19;;;26.14;50.73